Terminal Aerodrome Forecast
Issued by NWS

Home | Current Version | Previous Version | Text Only | Print | Product List | Glossary On
Versions: 1 2 3 4 5 6 7 8 9 10 11 12 13 14 15 16
703
FTUS41 KCAR 231120
TAFBHB
TAF
KBHB 231120Z 2312/2412 18007KT 6SM -DZ BR OVC005
     FM231230 18004KT P6SM OVC008
     FM231400 VRB03KT P6SM BKN022
     FM231530 24005KT P6SM SCT040
     FM231800 21007KT P6SM SCT060
     FM240300 VRB03KT P6SM SCT120
      TEMPO 2407/2411 2SM BR=

USA.gov is the U.S. government's official web portal to all federal, state and local government web resources and services.